Time;durP1;ratioP1;P1;durP2;ratioP2;P2;SDS_P1;SDS_P2;PMS_P1;PMS_P2;Temp;Humidity;BMP_temperature;BMP_pressure;BME280_temperature;BME280_humidity;BME280_pressure;Samples;Min_cycle;Max_cycle;Signal;HPM_P1;HPM_P2
2021/11/17 02:26:03;;;;;;;25.20;14.65;;;8.10;99.90;;;;;;5076690;28;20198;-78
2021/11/17 02:29:07;;;;;;;25.73;13.45;;;8.10;99.90;;;;;;5072670;28;20195;-78
2021/11/17 02:32:09;;;;;;;25.48;13.93;;;8.00;99.90;;;;;;5076005;28;20211;-78
2021/11/17 02:35:13;;;;;;;34.97;17.65;;;8.00;99.90;;;;;;5075581;28;20246;-78
2021/11/17 02:38:20;;;;;;;30.40;15.87;;;7.90;99.90;;;;;;5074191;28;20199;-78
2021/11/17 02:41:21;;;;;;;24.40;14.40;;;8.00;99.90;;;;;;5074186;28;20532;-78
2021/11/17 02:44:21;;;;;;;26.50;14.60;;;7.90;99.90;;;;;;5076649;28;20199;-78
2021/11/17 02:47:26;;;;;;;29.17;15.40;;;8.00;99.90;;;;;;5075195;28;20509;-78
2021/11/17 02:50:32;;;;;;;32.77;16.40;;;8.00;99.90;;;;;;5074158;28;21076;-78
2021/11/17 02:53:40;;;;;;;34.50;17.13;;;8.00;99.90;;;;;;5074707;28;20523;-78
2021/11/17 02:56:39;;;;;;;35.87;18.30;;;8.00;99.90;;;;;;5074008;28;21036;-78
2021/11/17 02:59:51;;;;;;;34.60;17.70;;;8.00;99.90;;;;;;5076317;28;20465;-78
2021/11/17 03:03:00;;;;;;;30.47;16.27;;;7.90;99.90;;;;;;5073743;28;20442;-78
2021/11/17 03:06:10;;;;;;;31.40;18.73;;;7.90;99.90;;;;;;5073765;28;20441;-78
2021/11/17 03:09:27;;;;;;;37.97;17.60;;;7.90;99.90;;;;;;5072720;28;20505;-78
2021/11/17 03:12:54;;;;;;;34.47;16.63;;;7.90;99.90;;;;;;5074739;28;20458;-78
2021/11/17 03:16:09;;;;;;;29.25;16.95;;;7.90;99.90;;;;;;5043982;28;20800;-78
2021/11/17 03:19:08;;;;;;;39.70;18.77;;;7.90;99.90;;;;;;5075967;28;20227;-78
2021/11/17 03:22:06;;;;;;;33.90;19.15;;;7.90;99.90;;;;;;5076883;28;20196;-78
2021/11/17 03:25:05;;;;;;;34.83;17.20;;;7.90;99.90;;;;;;5073894;28;20200;-78
2021/11/17 03:28:04;;;;;;;32.60;17.33;;;7.90;99.90;;;;;;5069801;28;20596;-78
2021/11/17 03:31:10;;;;;;;30.67;17.43;;;7.90;99.90;;;;;;5075807;28;20299;-78
2021/11/17 03:34:33;;;;;;;35.75;17.33;;;7.90;99.90;;;;;;5071778;28;20437;-78
2021/11/17 03:37:36;;;;;;;28.27;16.90;;;7.90;99.90;;;;;;5073458;28;20576;-78
2021/11/17 03:40:46;;;;;;;33.72;19.02;;;7.90;99.90;;;;;;5073934;28;20458;-78
2021/11/17 03:44:09;;;;;;;34.97;18.40;;;7.90;99.90;;;;;;5070902;28;20200;-78
2021/11/17 03:47:13;;;;;;;30.20;17.10;;;7.90;99.90;;;;;;5073321;28;20477;-78
2021/11/17 03:50:19;;;;;;;33.50;18.27;;;7.90;99.90;;;;;;5072288;28;20462;-78
2021/11/17 03:53:24;;;;;;;30.58;17.38;;;7.90;99.90;;;;;;5079474;28;20451;-78
2021/11/17 03:56:23;;;;;;;33.57;18.30;;;7.90;99.90;;;;;;5073760;28;20215;-78
2021/11/17 03:59:27;;;;;;;34.30;19.17;;;7.90;99.90;;;;;;5075525;28;20466;-78
2021/11/17 04:02:28;;;;;;;40.97;20.17;;;7.80;99.90;;;;;;5073557;28;20204;-78
2021/11/17 04:05:42;;;;;;;36.37;19.20;;;7.80;99.90;;;;;;5068158;28;21061;-77
2021/11/17 04:08:42;;;;;;;35.13;19.92;;;7.80;99.90;;;;;;5074768;28;20451;-78
2021/11/17 04:11:43;;;;;;;43.10;19.65;;;7.80;99.90;;;;;;5070625;28;20776;-78
2021/11/17 04:14:40;;;;;;;32.93;18.07;;;7.90;99.90;;;;;;5078587;28;20216;-78
2021/11/17 04:17:43;;;;;;;33.97;19.55;;;7.90;99.90;;;;;;5074577;28;20502;-78
2021/11/17 04:20:41;;;;;;;38.20;19.00;;;7.90;99.90;;;;;;5077866;28;20212;-78
2021/11/17 04:23:46;;;;;;;31.10;19.48;;;7.90;99.90;;;;;;5071990;28;20339;-78
2021/11/17 04:27:03;;;;;;;43.15;20.88;;;8.00;99.90;;;;;;5076272;28;20208;-78
2021/11/17 04:30:25;;;;;;;40.93;20.30;;;7.90;99.90;;;;;;5068954;28;20266;-78
2021/11/17 04:33:43;;;;;;;36.10;20.60;;;8.00;99.90;;;;;;5073636;28;20450;-78
2021/11/17 04:36:48;;;;;;;36.37;20.53;;;8.00;99.90;;;;;;5079476;28;20232;-78
2021/11/17 04:39:57;;;;;;;33.77;19.90;;;7.90;99.90;;;;;;5076736;28;20469;-78
2021/11/17 04:43:20;;;;;;;36.63;21.00;;;7.90;99.90;;;;;;5077802;28;20466;-78
2021/11/17 04:46:18;;;;;;;34.40;20.55;;;7.90;99.90;;;;;;5060623;28;20485;-78
2021/11/17 04:49:33;;;;;;;40.17;20.10;;;7.90;99.90;;;;;;5080054;28;20203;-78
2021/11/17 04:52:43;;;;;;;34.85;19.67;;;7.80;99.90;;;;;;5072440;28;20608;-78
2021/11/17 04:55:50;;;;;;;32.87;20.20;;;7.80;99.90;;;;;;5070480;28;20569;-78
2021/11/17 04:59:03;;;;;;;34.33;18.98;;;7.90;99.90;;;;;;5070950;28;20493;-78
2021/11/17 05:02:12;;;;;;;34.13;21.10;;;7.90;99.90;;;;;;5071522;28;20327;-78
2021/11/17 05:05:24;;;;;;;28.92;17.13;;;7.90;99.90;;;;;;5069337;28;20199;-78
2021/11/17 05:08:20;;;;;;;30.57;18.00;;;7.90;99.90;;;;;;5070601;28;20215;-78
2021/11/17 05:11:17;;;;;;;36.63;18.23;;;7.80;99.90;;;;;;5072351;28;20447;-78
2021/11/17 05:14:13;;;;;;;31.13;16.77;;;7.80;99.90;;;;;;5077216;28;20294;-78
2021/11/17 05:17:11;;;;;;;29.10;16.98;;;7.80;99.90;;;;;;5078518;28;20465;-78
2021/11/17 05:20:07;;;;;;;29.75;16.73;;;7.90;99.90;;;;;;5069625;28;20224;-78
2021/11/17 05:23:06;;;;;;;31.43;16.30;;;7.90;99.90;;;;;;5067852;28;20263;-78
2021/11/17 05:26:04;;;;;;;31.13;17.30;;;7.90;99.90;;;;;;5076871;28;20848;-78
2021/11/17 05:29:10;;;;;;;27.25;15.15;;;7.90;99.90;;;;;;5069202;28;20474;-78
2021/11/17 05:32:20;;;;;;;34.22;16.60;;;7.90;99.90;;;;;;5073687;28;20203;-78
2021/11/17 05:35:29;;;;;;;27.90;16.10;;;8.00;99.90;;;;;;5069792;28;20200;-77
2021/11/17 05:38:26;;;;;;;29.77;17.27;;;7.90;99.90;;;;;;5074805;28;20250;-78
2021/11/17 05:41:24;;;;;;;29.25;16.27;;;7.80;99.90;;;;;;5070267;28;20552;-77
2021/11/17 05:44:25;;;;;;;29.50;15.00;;;7.80;99.90;;;;;;5072682;28;20224;-77
2021/11/17 05:47:23;;;;;;;26.10;14.30;;;7.80;99.90;;;;;;5070485;28;20516;-78
2021/11/17 05:50:24;;;;;;;36.33;15.50;;;7.70;99.90;;;;;;5072720;28;20693;-77
2021/11/17 05:53:26;;;;;;;26.20;14.95;;;7.70;99.90;;;;;;5075968;28;20360;-78
2021/11/17 05:56:26;;;;;;;24.77;12.45;;;7.80;99.90;;;;;;5073937;28;20719;-78
2021/11/17 05:59:25;;;;;;;21.95;12.38;;;7.70;99.90;;;;;;5068939;28;20263;-77
2021/11/17 06:02:25;;;;;;;17.40;10.50;;;7.70;99.90;;;;;;5073069;28;20205;-77
2021/11/17 06:05:10;;;;;;;20.60;11.47;;;7.70;99.90;;;;;;5069760;28;20442;-77
2021/11/17 06:07:56;;;;;;;16.67;10.20;;;7.70;99.90;;;;;;5066239;28;20827;-78
2021/11/17 06:10:45;;;;;;;16.60;10.90;;;7.80;99.90;;;;;;5073174;28;20561;-77
2021/11/17 06:13:32;;;;;;;13.17;8.13;;;7.70;99.90;;;;;;5074269;28;20450;-78
2021/11/17 06:16:18;;;;;;;11.60;6.60;;;7.70;99.90;;;;;;5068605;28;20466;-77
2021/11/17 06:19:04;;;;;;;7.70;5.40;;;7.60;99.90;;;;;;5071389;28;20557;-78
2021/11/17 06:21:50;;;;;;;7.50;4.90;;;7.60;99.90;;;;;;5072011;28;20466;-77
2021/11/17 06:24:37;;;;;;;10.20;5.70;;;7.50;99.90;;;;;;5069828;28;20873;-77
2021/11/17 06:27:27;;;;;;;6.78;4.20;;;7.60;99.90;;;;;;5074180;28;20439;-77
2021/11/17 06:30:16;;;;;;;8.35;4.50;;;7.60;99.90;;;;;;5065170;28;20219;-77
2021/11/17 06:33:03;;;;;;;6.65;4.45;;;7.60;99.90;;;;;;5068239;28;20246;-77
2021/11/17 06:35:49;;;;;;;6.10;4.78;;;7.60;99.90;;;;;;5074207;28;20269;-77
2021/11/17 06:38:34;;;;;;;10.52;4.70;;;7.50;99.90;;;;;;5067005;28;20732;-78
2021/11/17 06:41:20;;;;;;;6.82;3.78;;;7.60;99.90;;;;;;5068278;28;20200;-77
2021/11/17 06:44:07;;;;;;;5.80;4.57;;;7.60;99.90;;;;;;5065957;28;20251;-77
2021/11/17 06:46:53;;;;;;;10.02;4.63;;;7.50;99.90;;;;;;5069863;28;20680;-78
2021/11/17 06:49:38;;;;;;;5.22;3.90;;;7.60;99.90;;;;;;5077363;28;20223;-77
2021/11/17 06:52:24;;;;;;;7.70;3.90;;;7.60;99.90;;;;;;5076067;28;20315;-77
2021/11/17 06:55:11;;;;;;;8.38;4.32;;;7.60;99.90;;;;;;5072375;28;20212;-77
2021/11/17 06:57:57;;;;;;;6.40;4.30;;;7.60;99.90;;;;;;5078571;28;20338;-77
2021/11/17 07:00:47;;;;;;;8.45;5.13;;;7.60;99.90;;;;;;5069443;28;20253;-78
2021/11/17 07:03:32;;;;;;;7.13;4.95;;;7.50;99.90;;;;;;5077583;28;20575;-78
2021/11/17 07:06:18;;;;;;;5.65;4.40;;;7.50;99.90;;;;;;5073525;28;20286;-78
2021/11/17 07:09:05;;;;;;;7.70;5.20;;;7.50;99.90;;;;;;5081239;28;20216;-78
2021/11/17 07:11:51;;;;;;;8.48;4.70;;;7.40;99.90;;;;;;5074194;28;20200;-78
2021/11/17 07:14:37;;;;;;;6.80;4.93;;;7.40;99.90;;;;;;5082007;28;20263;-78
2021/11/17 07:17:24;;;;;;;8.00;4.95;;;7.40;99.90;;;;;;5078174;28;20365;-77
2021/11/17 07:20:11;;;;;;;8.95;6.40;;;7.30;99.90;;;;;;5074642;28;20224;-77
2021/11/17 07:22:57;;;;;;;7.38;5.68;;;7.30;99.90;;;;;;5082108;28;20212;-78
2021/11/17 07:25:43;;;;;;;8.27;5.78;;;7.40;99.90;;;;;;5074029;28;20212;-78
2021/11/17 07:28:29;;;;;;;8.55;7.00;;;7.40;99.90;;;;;;5074038;28;20217;-78
2021/11/17 07:31:15;;;;;;;6.50;5.32;;;7.40;99.90;;;;;;5078185;28;20262;-78
2021/11/17 07:34:02;;;;;;;8.63;6.15;;;7.40;99.90;;;;;;5072366;28;20208;-78
2021/11/17 07:36:48;;;;;;;10.88;6.30;;;7.40;99.90;;;;;;5074448;28;20342;-77
2021/11/17 07:39:34;;;;;;;8.60;6.30;;;7.40;99.90;;;;;;5075097;28;20216;-77
2021/11/17 07:42:19;;;;;;;8.93;6.88;;;7.40;99.90;;;;;;5068482;28;20208;-78
2021/11/17 07:45:07;;;;;;;6.28;4.80;;;7.30;99.90;;;;;;5080390;28;20204;-77
2021/11/17 07:47:53;;;;;;;6.25;5.25;;;7.30;99.90;;;;;;5073726;28;20200;-78
2021/11/17 07:50:41;;;;;;;6.20;5.43;;;7.30;99.90;;;;;;5069386;28;20223;-78
2021/11/17 07:53:28;;;;;;;8.40;5.20;;;7.30;99.90;;;;;;5069423;28;20201;-77
2021/11/17 07:56:15;;;;;;;5.90;4.90;;;7.30;99.90;;;;;;5075505;28;20204;-77
2021/11/17 07:59:01;;;;;;;7.80;5.55;;;7.30;99.90;;;;;;5073323;28;20744;-78
2021/11/17 08:01:49;;;;;;;9.07;6.03;;;7.30;99.90;;;;;;5074842;28;20347;-76
2021/11/17 08:04:35;;;;;;;6.18;5.00;;;7.30;99.90;;;;;;5072780;28;20697;-77
2021/11/17 08:07:23;;;;;;;7.63;6.28;;;7.40;99.90;;;;;;5076766;28;20196;-76
2021/11/17 08:10:11;;;;;;;9.52;6.15;;;7.40;99.90;;;;;;5074757;28;20228;-77
2021/11/17 08:12:57;;;;;;;7.90;5.30;;;7.40;99.90;;;;;;5071827;28;20817;-78
2021/11/17 08:15:43;;;;;;;11.40;6.18;;;7.40;99.90;;;;;;5074112;28;20200;-77
2021/11/17 08:18:29;;;;;;;6.57;5.10;;;7.30;99.90;;;;;;5073013;28;20705;-77
2021/11/17 08:21:16;;;;;;;8.25;5.80;;;7.30;99.90;;;;;;5075049;28;20606;-77
2021/11/17 08:24:04;;;;;;;7.07;4.30;;;7.30;99.90;;;;;;5073253;28;20259;-77
2021/11/17 08:26:50;;;;;;;6.70;5.07;;;7.20;99.90;;;;;;5071903;28;20204;-76
2021/11/17 08:29:36;;;;;;;5.88;4.60;;;7.20;99.90;;;;;;5074197;28;20220;-76
2021/11/17 08:32:23;;;;;;;7.82;5.90;;;7.20;99.90;;;;;;5077029;28;20201;-76
2021/11/17 08:35:11;;;;;;;5.78;4.70;;;7.20;99.90;;;;;;5077599;28;20669;-77
2021/11/17 08:37:58;;;;;;;13.13;5.90;;;7.20;99.90;;;;;;5075345;28;20228;-77
2021/11/17 08:40:49;;;;;;;8.80;5.97;;;7.20;99.90;;;;;;5069156;28;20223;-77
2021/11/17 08:43:35;;;;;;;6.65;5.47;;;7.20;99.90;;;;;;5078886;28;20673;-77
2021/11/17 08:46:21;;;;;;;11.82;6.00;;;7.30;99.90;;;;;;5075981;28;20594;-77
2021/11/17 08:49:06;;;;;;;8.48;5.65;;;7.20;99.90;;;;;;5075637;28;20282;-76
2021/11/17 08:51:52;;;;;;;7.40;4.88;;;7.30;99.90;;;;;;5071853;28;20264;-78
2021/11/17 08:54:38;;;;;;;8.40;6.05;;;7.40;99.90;;;;;;5073753;28;20223;-77
2021/11/17 08:57:26;;;;;;;6.75;4.95;;;7.30;99.90;;;;;;5081954;28;20701;-77
2021/11/17 09:00:13;;;;;;;11.55;5.68;;;7.40;99.90;;;;;;5071159;28;20239;-77
2021/11/17 09:03:01;;;;;;;7.53;5.65;;;7.30;99.90;;;;;;5078048;28;20724;-78
2021/11/17 09:05:50;;;;;;;9.30;5.25;;;7.30;99.90;;;;;;5072540;28;20350;-76
2021/11/17 09:08:36;;;;;;;13.43;5.85;;;7.30;99.90;;;;;;5074413;28;20247;-76
2021/11/17 09:11:22;;;;;;;7.60;5.53;;;7.20;99.90;;;;;;5075462;28;20278;-77
2021/11/17 09:14:09;;;;;;;8.68;5.57;;;7.30;99.90;;;;;;5074971;28;20202;-76
2021/11/17 09:16:54;;;;;;;10.38;6.47;;;7.30;99.90;;;;;;5069863;28;20200;-78
2021/11/17 09:19:40;;;;;;;9.43;5.80;;;7.30;99.90;;;;;;5072844;28;20621;-77
2021/11/17 09:22:26;;;;;;;5.75;4.93;;;7.20;99.90;;;;;;5065273;28;20209;-75
2021/11/17 09:25:12;;;;;;;7.97;5.32;;;7.20;99.90;;;;;;5072931;28;20204;-76
2021/11/17 09:27:58;;;;;;;7.97;5.40;;;7.10;99.90;;;;;;5068670;28;20268;-77
2021/11/17 09:30:45;;;;;;;7.57;5.50;;;7.20;99.90;;;;;;5068631;28;20283;-76
2021/11/17 09:33:32;;;;;;;7.30;5.10;;;7.20;99.90;;;;;;5070564;28;20207;-77
2021/11/17 09:36:19;;;;;;;13.15;4.55;;;7.30;99.90;;;;;;5077822;28;20204;-76
2021/11/17 09:39:07;;;;;;;6.95;4.75;;;7.50;99.90;;;;;;5068052;28;20223;-76
2021/11/17 09:41:55;;;;;;;7.80;4.35;;;7.30;99.90;;;;;;5072353;28;20204;-76
2021/11/17 09:44:42;;;;;;;11.32;5.10;;;7.30;99.90;;;;;;5081502;28;20199;-77
2021/11/17 09:47:31;;;;;;;9.38;4.70;;;7.20;99.90;;;;;;5073851;28;20208;-76
2021/11/17 09:50:22;;;;;;;11.60;4.35;;;7.30;99.90;;;;;;5075806;28;20335;-77
2021/11/17 09:53:18;;;;;;;5.85;4.00;;;7.40;99.90;;;;;;5072825;28;20197;-77
2021/11/17 09:56:13;;;;;;;6.82;4.78;;;7.40;99.90;;;;;;5074188;28;20712;-75
2021/11/17 09:59:03;;;;;;;5.53;4.03;;;7.50;99.90;;;;;;5068070;28;20347;-77
2021/11/17 10:01:55;;;;;;;6.60;4.43;;;7.50;99.90;;;;;;5073536;28;20196;-76
2021/11/17 10:04:49;;;;;;;7.50;3.95;;;7.60;99.90;;;;;;5074144;28;20199;-77
2021/11/17 10:13:35;;;;;;;6.03;4.13;;;7.80;99.90;;;;;;5078843;28;20275;-77
2021/11/17 10:16:23;;;;;;;5.80;4.18;;;7.70;99.90;;;;;;5068145;28;20951;-77
2021/11/17 10:19:22;;;;;;;9.13;4.00;;;7.70;99.90;;;;;;5074369;28;20207;-76
2021/11/17 10:22:12;;;;;;;5.38;4.00;;;7.60;99.90;;;;;;5065829;28;20195;-77
2021/11/17 10:25:07;;;;;;;10.60;4.85;;;7.70;99.90;;;;;;5068343;28;20291;-77
2021/11/17 10:27:58;;;;;;;6.72;3.78;;;7.60;99.90;;;;;;5076357;28;20559;-76
2021/11/17 10:30:53;;;;;;;7.63;4.68;;;7.60;99.90;;;;;;5072639;28;20227;-77
2021/11/17 10:33:59;;;;;;;7.63;4.55;;;7.60;99.90;;;;;;5076299;28;20192;-77
2021/11/17 10:37:04;;;;;;;7.35;5.10;;;7.70;99.90;;;;;;5071154;28;20231;-77
2021/11/17 10:39:52;;;;;;;6.20;4.18;;;7.70;99.90;;;;;;5065239;28;20216;-77
2021/11/17 10:42:39;;;;;;;6.33;4.13;;;7.70;99.90;;;;;;5073897;28;20308;-76
2021/11/17 10:45:30;;;;;;;7.10;4.75;;;7.70;99.90;;;;;;5070137;28;20585;-77
2021/11/17 10:48:22;;;;;;;9.68;5.85;;;7.50;99.90;;;;;;5079426;28;20685;-76
2021/11/17 10:51:13;;;;;;;7.15;4.65;;;7.50;99.90;;;;;;5073647;28;20220;-77
2021/11/17 10:54:00;;;;;;;6.35;4.50;;;7.60;99.90;;;;;;5069239;28;20250;-77
2021/11/17 10:56:59;;;;;;;8.33;5.47;;;7.60;99.90;;;;;;5073773;28;20199;-77
2021/11/17 10:59:44;;;;;;;10.43;6.03;;;7.70;99.90;;;;;;5066706;28;20613;-77
2021/11/17 11:02:31;;;;;;;7.40;5.00;;;7.80;99.90;;;;;;5075870;28;20609;-77
2021/11/17 11:05:19;;;;;;;10.02;5.53;;;7.80;99.90;;;;;;5077475;28;20624;-77
2021/11/17 11:08:08;;;;;;;8.65;5.65;;;7.80;99.90;;;;;;5073384;28;20203;-77
2021/11/17 11:10:56;;;;;;;9.23;5.35;;;7.80;99.90;;;;;;5076706;28;20220;-77
2021/11/17 11:13:48;;;;;;;7.63;5.63;;;7.70;99.90;;;;;;5077954;28;20276;-77
2021/11/17 11:16:39;;;;;;;8.02;5.55;;;7.70;99.90;;;;;;5077437;28;20212;-74
2021/11/17 11:19:29;;;;;;;17.20;6.65;;;7.70;99.90;;;;;;5071729;28;20228;-77
2021/11/17 11:22:16;;;;;;;10.70;5.82;;;7.80;99.90;;;;;;5076397;28;20199;-78
2021/11/17 11:25:40;;;;;;;8.00;5.43;;;7.80;99.90;;;;;;5075411;28;20208;-78
2021/11/17 11:28:30;;;;;;;6.68;4.95;;;7.70;99.90;;;;;;5072902;28;20806;-77
2021/11/17 11:31:40;;;;;;;8.82;5.35;;;7.70;99.90;;;;;;5076308;28;20204;-78
2021/11/17 11:34:46;;;;;;;10.20;5.82;;;7.70;99.90;;;;;;5074058;28;20659;-78
2021/11/17 11:38:07;;;;;;;7.10;5.20;;;7.80;99.90;;;;;;5071071;28;20220;-77
2021/11/17 11:41:06;;;;;;;7.68;4.80;;;7.80;99.90;;;;;;5072976;28;20236;-78
2021/11/17 11:44:25;;;;;;;10.10;5.13;;;8.00;99.90;;;;;;5071700;28;20196;-78
2021/11/17 11:47:52;;;;;;;8.07;5.47;;;8.00;99.90;;;;;;5077237;28;20304;-77
2021/11/17 11:50:56;;;;;;;8.27;5.53;;;8.10;99.90;;;;;;5071436;28;20232;-78
2021/11/17 11:54:10;;;;;;;8.55;5.32;;;8.00;99.90;;;;;;5070343;28;20200;-77
2021/11/17 11:57:21;;;;;;;7.22;5.05;;;8.10;99.90;;;;;;5072933;28;20280;-78
2021/11/17 12:00:10;;;;;;;8.30;5.27;;;8.00;99.90;;;;;;5071333;28;20382;-78
2021/11/17 12:02:59;;;;;;;8.32;4.93;;;8.00;99.90;;;;;;5069737;28;20431;-78
2021/11/17 12:05:50;;;;;;;9.00;5.70;;;8.10;99.90;;;;;;5078097;28;20247;-78
2021/11/17 12:08:46;;;;;;;8.57;6.10;;;8.20;99.90;;;;;;5074510;28;20557;-78
2021/11/17 12:11:32;;;;;;;9.77;5.73;;;8.30;99.90;;;;;;5081025;28;20442;-78
2021/11/17 12:14:45;;;;;;;9.30;4.78;;;8.30;99.90;;;;;;5074859;28;20935;-78
2021/11/17 12:17:31;;;;;;;6.60;4.13;;;8.40;99.90;;;;;;5065879;28;20337;-77
2021/11/17 12:20:24;;;;;;;6.57;4.70;;;8.50;99.90;;;;;;5078794;28;20459;-75
2021/11/17 12:23:26;;;;;;;8.77;4.20;;;8.90;99.90;;;;;;5075128;28;20423;-78
2021/11/17 12:26:19;;;;;;;6.73;4.60;;;9.60;99.90;;;;;;5075833;28;20449;-78
2021/11/17 12:29:10;;;;;;;5.50;3.73;;;9.90;99.90;;;;;;5074765;28;20450;-77
2021/11/17 12:31:59;;;;;;;7.97;4.03;;;9.80;99.90;;;;;;5073229;28;20450;-78
2021/11/17 12:34:53;;;;;;;5.93;4.20;;;9.70;99.90;;;;;;5064361;28;20448;-78
2021/11/17 12:37:47;;;;;;;7.13;3.93;;;9.50;99.90;;;;;;5065061;28;20439;-77
2021/11/17 12:40:41;;;;;;;9.53;4.17;;;9.40;99.90;;;;;;5068635;28;20475;-70
2021/11/17 12:43:33;;;;;;;4.37;3.30;;;9.30;99.90;;;;;;5064604;28;20439;-73
2021/11/17 12:46:25;;;;;;;8.40;4.22;;;9.20;99.90;;;;;;5073357;28;20451;-72
2021/11/17 12:49:17;;;;;;;6.23;3.47;;;9.10;99.90;;;;;;5067429;28;20267;-72
2021/11/17 12:52:09;;;;;;;6.63;4.10;;;9.00;99.90;;;;;;5073473;28;20451;-77
2021/11/17 12:55:00;;;;;;;15.57;9.27;;;8.90;99.90;;;;;;5067753;28;20445;-75
2021/11/17 12:57:51;;;;;;;6.90;4.20;;;8.90;99.90;;;;;;5073218;28;20447;-76
2021/11/17 13:00:54;;;;;;;6.22;3.75;;;8.80;99.90;;;;;;5072055;28;20239;-76
2021/11/17 13:03:55;;;;;;;4.83;3.93;;;8.80;99.90;;;;;;5067333;28;20199;-76
2021/11/17 13:06:49;;;;;;;5.50;4.10;;;8.80;99.90;;;;;;5074185;28;20442;-77
2021/11/17 13:09:56;;;;;;;4.35;3.53;;;8.80;99.90;;;;;;5066361;28;20465;-77
2021/11/17 13:12:43;;;;;;;7.00;3.73;;;8.70;99.90;;;;;;5062447;28;20200;-75
2021/11/17 13:15:38;;;;;;;5.57;4.07;;;8.70;99.90;;;;;;5073928;28;20581;-77
2021/11/17 13:18:35;;;;;;;5.27;3.80;;;8.70;99.90;;;;;;5074197;28;21052;-76
2021/11/17 13:21:31;;;;;;;5.77;3.63;;;8.70;99.90;;;;;;5068832;28;20439;-77
2021/11/17 13:24:40;;;;;;;5.30;4.00;;;8.70;99.90;;;;;;5076022;28;20445;-76
2021/11/17 13:27:40;;;;;;;4.33;3.57;;;8.70;99.90;;;;;;5079606;28;20746;-77
2021/11/17 13:30:38;;;;;;;7.83;4.27;;;8.60;99.90;;;;;;5074513;28;20770;-77
2021/11/17 13:33:27;;;;;;;4.35;3.25;;;8.60;99.90;;;;;;5069380;28;20442;-77
2021/11/17 13:36:15;;;;;;;4.10;3.17;;;8.60;99.90;;;;;;5075500;28;20212;-77
2021/11/17 13:39:01;;;;;;;7.10;3.60;;;8.60;99.90;;;;;;5068009;28;20473;-77
2021/11/17 13:41:49;;;;;;;5.50;3.40;;;8.60;99.90;;;;;;5073327;28;20457;-77
2021/11/17 13:44:37;;;;;;;5.47;3.20;;;8.60;99.90;;;;;;5074963;28;20425;-76
2021/11/17 13:47:24;;;;;;;4.53;3.30;;;8.60;99.90;;;;;;5074675;28;20450;-76
2021/11/17 13:50:11;;;;;;;6.60;4.13;;;8.60;99.90;;;;;;5069715;28;20439;-75
2021/11/17 13:52:57;;;;;;;7.07;3.60;;;8.50;99.90;;;;;;5071262;28;20496;-77
2021/11/17 13:55:50;;;;;;;5.85;3.35;;;8.50;99.90;;;;;;5069776;28;20282;-77
2021/11/17 13:58:36;;;;;;;9.77;3.47;;;8.60;99.90;;;;;;5064584;28;20862;-76
2021/11/17 14:01:24;;;;;;;7.00;3.63;;;8.60;99.90;;;;;;5071162;28;20442;-77
2021/11/17 14:04:10;;;;;;;6.65;3.75;;;8.60;99.90;;;;;;5072672;28;20533;-77
2021/11/17 14:06:58;;;;;;;6.15;4.20;;;8.50;99.90;;;;;;5070635;28;20698;-77
2021/11/17 14:09:44;;;;;;;8.17;3.60;;;8.50;99.90;;;;;;5075132;28;20216;-77
2021/11/17 14:12:30;;;;;;;11.80;5.03;;;8.50;99.90;;;;;;5069121;28;20570;-77
2021/11/17 14:15:16;;;;;;;5.77;4.20;;;8.50;99.90;;;;;;5078297;28;20203;-77
2021/11/17 14:18:08;;;;;;;4.90;3.80;;;8.40;99.90;;;;;;5075414;28;20435;-77
2021/11/17 14:20:54;;;;;;;6.23;4.60;;;8.50;99.90;;;;;;5082426;28;20528;-78
2021/11/17 14:23:40;;;;;;;8.05;4.00;;;8.40;99.90;;;;;;5074376;28;20569;-77
2021/11/17 14:26:26;;;;;;;6.57;4.60;;;8.50;99.90;;;;;;5071911;28;20201;-77
2021/11/17 14:29:16;;;;;;;14.63;4.20;;;8.50;99.90;;;;;;5071429;28;20474;-77
2021/11/17 14:32:09;;;;;;;6.53;4.30;;;8.60;99.90;;;;;;5074767;28;20427;-77
2021/11/17 14:34:57;;;;;;;6.28;4.07;;;8.60;99.90;;;;;;5070204;28;20528;-77
2021/11/17 14:37:43;;;;;;;5.93;3.27;;;8.60;99.90;;;;;;5072200;28;20204;-77
2021/11/17 14:40:29;;;;;;;7.50;3.67;;;8.60;99.90;;;;;;5056415;28;20479;-77
2021/11/17 14:43:16;;;;;;;7.07;4.43;;;8.60;99.90;;;;;;5069961;28;20849;-77
2021/11/17 14:46:02;;;;;;;5.90;3.60;;;8.70;99.90;;;;;;5075644;28;20204;-77
2021/11/17 14:48:48;;;;;;;5.80;4.00;;;8.70;99.90;;;;;;5072733;28;20563;-77
2021/11/17 14:51:35;;;;;;;5.20;3.63;;;8.70;99.90;;;;;;5070453;28;20568;-77
2021/11/17 14:54:21;;;;;;;6.17;4.30;;;8.80;99.90;;;;;;5072485;28;20421;-77
2021/11/17 14:57:08;;;;;;;6.45;3.60;;;8.70;99.90;;;;;;5067895;28;20458;-77
2021/11/17 14:59:54;;;;;;;5.40;3.23;;;8.70;99.90;;;;;;5071909;28;20240;-77
2021/11/17 15:02:40;;;;;;;5.20;3.20;;;8.70;99.90;;;;;;5073772;28;20508;-77
2021/11/17 15:05:27;;;;;;;5.50;3.80;;;8.60;99.90;;;;;;5073539;28;20804;-77
2021/11/17 15:08:14;;;;;;;5.27;3.50;;;8.70;99.90;;;;;;5073750;28;20837;-77
2021/11/17 15:10:59;;;;;;;5.67;3.57;;;8.70;99.90;;;;;;5066484;28;21004;-78
2021/11/17 15:13:46;;;;;;;7.13;4.23;;;8.70;99.90;;;;;;5068338;28;20450;-77
2021/11/17 15:16:31;;;;;;;6.63;4.10;;;8.80;99.90;;;;;;5072018;28;20813;-77
2021/11/17 15:19:17;;;;;;;7.33;3.93;;;8.80;99.90;;;;;;5072495;28;20493;-77
2021/11/17 15:22:04;;;;;;;8.67;3.90;;;8.70;99.90;;;;;;5073695;28;20504;-77
2021/11/17 15:24:51;;;;;;;6.57;4.00;;;8.70;99.90;;;;;;5065947;28;20457;-77
2021/11/17 15:27:40;;;;;;;6.90;4.27;;;8.60;99.90;;;;;;5072156;28;20449;-77
2021/11/17 15:30:28;;;;;;;9.30;4.30;;;8.60;99.90;;;;;;5075439;28;20450;-77
2021/11/17 15:33:14;;;;;;;8.20;4.33;;;8.60;99.90;;;;;;5068451;28;20967;-77
2021/11/17 15:36:00;;;;;;;9.80;5.70;;;8.60;99.90;;;;;;5076568;28;20457;-77
2021/11/17 15:38:48;;;;;;;6.50;3.90;;;8.50;99.90;;;;;;5073779;28;20453;-78
2021/11/17 15:41:37;;;;;;;7.80;4.53;;;8.50;99.90;;;;;;5067348;28;20862;-77
2021/11/17 15:44:23;;;;;;;6.83;4.60;;;8.50;99.90;;;;;;5076184;28;20442;-77
2021/11/17 15:47:11;;;;;;;7.67;3.83;;;8.50;99.90;;;;;;5069908;28;20966;-77
2021/11/17 15:49:58;;;;;;;8.53;4.37;;;8.50;99.90;;;;;;5071877;28;20597;-77
2021/11/17 15:52:43;;;;;;;5.63;3.70;;;8.50;99.90;;;;;;5068918;28;20811;-77
2021/11/17 15:55:29;;;;;;;6.85;4.63;;;8.40;99.90;;;;;;5069514;28;20242;-78
2021/11/17 15:58:18;;;;;;;6.80;4.47;;;8.40;99.90;;;;;;5072832;28;20204;-78
2021/11/17 16:01:04;;;;;;;8.32;4.90;;;8.40;99.90;;;;;;5068342;28;20486;-78
2021/11/17 16:03:52;;;;;;;7.03;4.40;;;8.40;99.90;;;;;;5067311;28;20196;-77
2021/11/17 16:06:53;;;;;;;6.63;4.50;;;8.50;99.90;;;;;;5073436;28;20418;-78
2021/11/17 16:09:41;;;;;;;5.77;4.27;;;8.50;99.90;;;;;;5074625;28;20513;-77
2021/11/17 16:12:28;;;;;;;7.37;5.30;;;8.50;99.90;;;;;;5073028;28;20414;-77
2021/11/17 16:15:15;;;;;;;6.93;5.10;;;8.50;99.90;;;;;;5070096;28;20920;-77
2021/11/17 16:18:03;;;;;;;7.77;4.13;;;8.50;99.90;;;;;;5062279;28;20455;-78
2021/11/17 16:20:52;;;;;;;12.00;5.13;;;8.50;99.90;;;;;;5078648;28;20592;-78
2021/11/17 16:26:46;;;;;;;6.40;4.77;;;8.50;99.90;;;;;;5070688;28;20443;-78
2021/11/17 16:29:32;;;;;;;8.45;5.15;;;8.50;99.90;;;;;;5068346;28;20463;-78
2021/11/17 16:32:19;;;;;;;8.73;5.70;;;8.50;99.90;;;;;;5074853;28;20326;-77
2021/11/17 16:35:06;;;;;;;8.70;5.80;;;8.60;99.90;;;;;;5072169;28;20451;-77
2021/11/17 16:37:53;;;;;;;9.10;4.93;;;8.50;99.90;;;;;;5074351;28;20581;-78
2021/11/17 16:40:42;;;;;;;10.23;5.30;;;8.40;99.90;;;;;;5069176;28;20474;-77
2021/11/17 16:43:28;;;;;;;13.30;5.50;;;8.50;99.90;;;;;;5072512;28;20205;-77
2021/11/17 16:46:14;;;;;;;7.10;5.00;;;8.40;99.90;;;;;;5073602;28;20451;-77
2021/11/17 16:49:01;;;;;;;8.73;5.20;;;8.40;99.90;;;;;;5073764;28;20218;-77
2021/11/17 16:52:25;;;;;;;9.35;6.45;;;8.40;99.90;;;;;;5076469;28;20434;-77
2021/11/17 16:55:14;;;;;;;8.97;6.17;;;8.40;99.90;;;;;;5074117;28;20681;-77
2021/11/17 16:58:01;;;;;;;8.70;6.33;;;8.40;99.90;;;;;;5068295;28;20446;-77
2021/11/17 17:00:49;;;;;;;9.07;5.97;;;8.40;99.90;;;;;;5073030;28;20573;-77
2021/11/17 17:03:37;;;;;;;8.00;5.63;;;8.40;99.90;;;;;;5067413;28;20196;-77
2021/11/17 17:06:29;;;;;;;7.63;5.80;;;8.40;99.90;;;;;;5076027;28;20447;-77
2021/11/17 17:09:15;;;;;;;7.83;6.10;;;8.30;99.90;;;;;;5063635;28;20975;-77
2021/11/17 17:12:00;;;;;;;9.05;6.30;;;8.30;99.90;;;;;;5066833;28;20435;-77
2021/11/17 17:14:46;;;;;;;9.03;6.00;;;8.30;99.90;;;;;;5067188;28;20278;-77
2021/11/17 17:17:32;;;;;;;8.77;5.63;;;8.40;99.90;;;;;;5060220;28;20537;-77
2021/11/17 17:20:21;;;;;;;13.32;6.80;;;8.40;99.90;;;;;;5071736;28;20474;-78
2021/11/17 17:23:10;;;;;;;10.80;6.50;;;8.40;99.90;;;;;;5063338;28;20197;-77
2021/11/17 17:25:58;;;;;;;12.37;5.90;;;8.30;99.90;;;;;;5074716;28;20470;-78
2021/11/17 17:28:43;;;;;;;8.07;6.43;;;8.30;99.90;;;;;;5061964;28;20969;-77
2021/11/17 17:31:29;;;;;;;7.93;6.10;;;8.30;99.90;;;;;;5063861;28;20200;-77
2021/11/17 17:34:15;;;;;;;7.63;5.72;;;8.20;99.90;;;;;;5070956;28;20199;-77
2021/11/17 17:37:03;;;;;;;13.40;6.78;;;8.20;99.90;;;;;;5070055;28;20203;-77
2021/11/17 17:39:51;;;;;;;7.88;6.13;;;8.10;99.90;;;;;;5067071;28;20321;-77